Alapuzha, India

1:24 AM IST on October 01, 2014 (GMT +0530)
Cochin International | Change Station
CLOSE
Current Station
Airport
Location: COCHIN INTL,
Elevation: 26 ft
Nearby Weather Stations

Elev 26 ft 10.15 °N, 76.40 °E | Updated 24 minutes ago

Haze
Haze
75 °F
Feels Like 75 °F
N
0
Wind Variable Wind from North

Today
High -- | Low -- °F
--% Chance of Precip.
Yesterday
High -- | Low -- °F
Precip. -- in
6:12 AM 6:15 PM
Waxing Crescent, 39% visible
Pressure 29.86 in
Visibility 1.9 miles
Clouds Scattered Clouds 1500 ft
Mostly Cloudy 8000 ft
Dew Point 73 °F
Humidity 94%
Rainfall 0.00 in
Snow Depth Not available.
UV 0 out of 12
Pollen Not available.
Air Quality Not available.
Flu Activity Not available.
METAR VOCI 301930Z 00000KT 3000 HZ SCT015 BKN080 24/23 Q1011 NOSIG

More Conditions Fewer Conditions

Pressure 29.86 in
Visibility 1.9 miles
Clouds Scattered Clouds 1500 ft
Mostly Cloudy 8000 ft
Dew Point 73 °F
Humidity 94%
Rainfall 0.00 in
Snow Depth Not available.
UV 0 out of 12
Pollen Not available.
Air Quality Not available.
Flu Activity Not available.
METAR VOCI 301930Z 00000KT 3000 HZ SCT015 BKN080 24/23 Q1011 NOSIG

More Conditions Fewer Conditions

10-Day Weather Forecast

Almanac

Astronomy

Oct. 01, 2014 Rise Set
Actual Time 6:12 AM IST 6:15 PM IST
Civil Twilight 5:51 AM IST 6:36 PM IST
Nautical Twilight 5:27 AM IST 7:00 PM IST
Astronomical Twilight 5:03 AM IST 7:24 PM IST
Moon 12:02 PM IST (10/1) 12:03 AM IST (10/2)
Length of Visible Light 12h 44m
Length of Day
12h 02m
Tomorrow will be 0m 32s shorter.
Waxing Crescent, 39% of the Moon is Illuminated
Sep 30
Waxing Crescent
Oct 1
First Quarter
Oct 8
Full
Oct 15
Last Quarter
Oct 23
New

Yesterday's Extremes

Country Highs Country Lows

Community

WunderPhotos

Upload Photos

1,757,731 photos uploaded!

Nearby

Snow Depth

Not available.

Earthquake Activity

City Distance Mag. Time & Date
No recent earthquake activity has been reported nearby.
Minimum magnitude displayed is 2.5.

Coastal Water Temperatures

Place Temperature
No Stations Reporting

Nearby Weather Stations